Belchatow, Poland
Current Conditions -  °F | °C
As of 1:00 AM on Thursday 27 Nov 2014 (Local Time) from EPLL Reporting Station
Haze Haze  
Wind Chill: 29°   Ceiling: 500
Heat Index: 36°   Visibility: 3mi
Dew Point: 34°   Wind: 8mph
Humidity: 93%   Direction: 110°ESE
Pressure: 30.21"   Gusts: NA
Location:  51.37°N, 19.36°E
Report Text: EPLL 262300Z 11007KT 5000 BR OVC005 02/01 Q1023
Loading
Personal Weather Stations






























Interactive Weather Map New forecast layout! Learn more

10-Day Weather Forecast

Advertisements
Track Severe Weather on mobile